createdAt,value
2018-05-25T00:02:19.203Z,56.97
2018-05-25T00:04:54.997Z,58.07
2018-05-25T00:07:30.790Z,58.30
2018-05-25T00:10:06.493Z,56.70
2018-05-25T00:12:42.424Z,53.70
2018-05-25T00:15:18.137Z,56.87
2018-05-25T00:17:54.032Z,57.10
2018-05-25T00:20:29.732Z,56.70
2018-05-25T00:23:05.546Z,52.60
2018-05-25T00:25:41.351Z,57.70
2018-05-25T00:28:17.212Z,54.23
2018-05-25T00:30:52.961Z,60.80
2018-05-25T00:33:28.738Z,51.50
2018-05-25T00:36:04.513Z,60.63
2018-05-25T00:38:40.363Z,58.60
2018-05-25T00:41:16.293Z,59.80
2018-05-25T00:43:52.147Z,60.93
2018-05-25T00:46:27.829Z,59.17
2018-05-25T00:49:03.600Z,53.50
2018-05-25T00:51:39.502Z,61.70
2018-05-25T00:54:15.205Z,62.50
2018-05-25T00:56:51.034Z,60.30
2018-05-25T00:59:26.812Z,67.53
2018-05-25T01:02:02.631Z,64.30
2018-05-25T01:04:38.329Z,57.90
2018-05-25T01:07:14.108Z,58.23
2018-05-25T01:09:49.968Z,66.57
2018-05-25T01:12:25.796Z,59.37
2018-05-25T01:15:01.673Z,62.23
2018-05-25T01:17:37.478Z,56.70
2018-05-25T01:20:13.376Z,64.37
2018-05-25T01:22:49.892Z,70.33
2018-05-25T01:25:25.590Z,62.43
2018-05-25T01:28:01.420Z,63.10
2018-05-25T01:30:37.182Z,69.00
2018-05-25T01:33:13.035Z,79.37
2018-05-25T01:35:48.859Z,67.70
2018-05-25T01:38:24.693Z,62.00
2018-05-25T01:41:00.377Z,63.40
2018-05-25T01:43:36.225Z,59.10
2018-05-25T01:46:12.091Z,65.13
2018-05-25T01:48:47.860Z,59.50
2018-05-25T01:51:23.670Z,63.70
2018-05-25T01:53:59.446Z,71.97
2018-05-25T01:56:35.299Z,64.23
2018-05-25T01:59:11.063Z,70.87
2018-05-25T02:01:46.879Z,65.73
2018-05-25T02:04:22.564Z,67.80
2018-05-25T02:06:58.373Z,63.70
2018-05-25T02:09:34.030Z,74.63
2018-05-25T02:12:09.792Z,72.30
2018-05-25T02:14:45.557Z,69.90
2018-05-25T02:17:21.294Z,72.00
2018-05-25T02:19:58.989Z,67.27
2018-05-25T02:22:34.828Z,76.77
2018-05-25T02:25:10.520Z,70.07
2018-05-25T02:27:46.463Z,65.53
2018-05-25T02:30:22.282Z,72.07
2018-05-25T02:32:58.160Z,71.30
2018-05-25T02:35:33.973Z,72.43
2018-05-25T02:38:11.709Z,71.67
2018-05-25T02:40:47.569Z,69.53
2018-05-25T02:43:24.643Z,74.30
2018-05-25T02:46:00.453Z,69.53
2018-05-25T02:48:36.306Z,74.63
2018-05-25T02:51:12.297Z,66.60
2018-05-25T02:53:48.149Z,77.37
2018-05-25T02:56:24.089Z,73.17
2018-05-25T02:59:00.049Z,74.07
2018-05-25T03:01:35.738Z,73.23
2018-05-25T03:04:11.558Z,83.47
2018-05-25T03:06:47.190Z,74.63
2018-05-25T03:09:23.032Z,74.10
2018-05-25T03:11:58.898Z,70.13
2018-05-25T03:14:34.549Z,70.37
2018-05-25T03:17:10.541Z,70.20
2018-05-25T03:19:46.257Z,71.73
2018-05-25T03:22:22.942Z,74.57
2018-05-25T03:24:58.713Z,69.53
2018-05-25T03:27:34.505Z,72.03
2018-05-25T03:30:10.270Z,77.97
2018-05-25T03:32:46.085Z,79.00
2018-05-25T03:35:21.830Z,71.50
2018-05-25T03:37:57.746Z,78.93
2018-05-25T03:40:33.526Z,77.60
2018-05-25T03:43:09.311Z,77.97
2018-05-25T03:45:45.160Z,71.77
2018-05-25T03:48:21.035Z,84.27
2018-05-25T03:50:56.760Z,82.43
2018-05-25T03:53:32.524Z,76.87
2018-05-25T03:56:08.364Z,79.20
2018-05-25T03:58:50.080Z,88.30
2018-05-25T04:01:31.750Z,76.07
2018-05-25T04:04:07.519Z,76.83
2018-05-25T04:06:43.283Z,104.07
2018-05-25T04:09:19.219Z,86.07
2018-05-25T04:11:55.989Z,81.77
2018-05-25T04:14:31.737Z,78.43
2018-05-25T04:17:07.597Z,81.63
2018-05-25T04:19:43.446Z,74.67
2018-05-25T04:22:19.215Z,80.73
2018-05-25T04:24:55.053Z,80.23
2018-05-25T04:27:30.803Z,76.87
2018-05-25T04:30:06.652Z,78.60
2018-05-25T04:32:42.447Z,77.73
2018-05-25T04:35:18.086Z,80.10
2018-05-25T04:37:53.846Z,75.77
2018-05-25T04:40:29.621Z,77.77
2018-05-25T04:43:05.413Z,71.43
2018-05-25T04:45:41.361Z,74.60
2018-05-25T04:48:15.536Z,75.80
2018-05-25T04:50:51.030Z,77.30
2018-05-25T04:53:26.659Z,75.60
2018-05-25T04:56:02.118Z,74.93
2018-05-25T04:58:37.811Z,77.27
2018-05-25T05:01:11.986Z,73.50
2018-05-25T05:03:46.113Z,76.73
2018-05-25T05:06:21.532Z,74.70
2018-05-25T05:08:55.801Z,75.30
2018-05-25T05:11:30.041Z,78.00
2018-05-25T05:14:04.358Z,69.73
2018-05-25T05:16:38.791Z,72.37
2018-05-25T05:19:12.878Z,66.80
2018-05-25T05:21:48.525Z,66.40
2018-05-25T05:24:22.755Z,68.67
2018-05-25T05:26:58.429Z,70.17
2018-05-25T05:29:33.873Z,65.40
2018-05-25T05:32:09.429Z,67.20
2018-05-25T05:34:44.613Z,67.70
2018-05-25T05:37:20.051Z,60.20
2018-05-25T05:39:54.568Z,66.53
2018-05-25T05:42:29.932Z,64.00
2018-05-25T05:45:05.472Z,73.90
2018-05-25T05:47:41.016Z,65.70
2018-05-25T05:50:16.873Z,66.87
2018-05-25T05:52:51.081Z,62.50
2018-05-25T05:55:25.388Z,57.83
2018-05-25T05:57:59.582Z,59.70
2018-05-25T06:00:34.923Z,51.37
2018-05-25T06:03:09.274Z,57.70
2018-05-25T06:05:43.553Z,52.60
2018-05-25T06:08:17.839Z,50.60
2018-05-25T06:10:52.082Z,50.03
2018-05-25T06:13:26.406Z,42.57
2018-05-25T06:16:00.773Z,42.53
2018-05-25T06:18:35.653Z,45.70
2018-05-25T06:21:09.862Z,42.17
2018-05-25T06:23:44.097Z,44.13
2018-05-25T06:26:19.434Z,43.70
2018-05-25T06:28:54.477Z,44.80
2018-05-25T06:31:28.886Z,60.33
2018-05-25T06:34:03.028Z,45.13
2018-05-25T06:36:37.305Z,46.40
2018-05-25T06:39:11.622Z,40.00
2018-05-25T06:41:45.763Z,45.30
2018-05-25T06:44:20.722Z,40.90
2018-05-25T06:46:54.960Z,42.87
2018-05-25T06:49:29.303Z,45.83
2018-05-25T06:52:03.527Z,45.90
2018-05-25T06:54:37.838Z,53.53
2018-05-25T06:57:12.086Z,42.23
2018-05-25T06:59:46.369Z,53.10
2018-05-25T07:02:20.687Z,45.67
2018-05-25T07:04:55.006Z,48.27
2018-05-25T07:07:29.317Z,50.73
2018-05-25T07:10:03.551Z,45.03
2018-05-25T07:12:38.567Z,42.83
2018-05-25T07:15:12.733Z,38.17
2018-05-25T07:17:50.979Z,39.70
2018-05-25T07:20:25.154Z,39.60
2018-05-25T07:23:00.214Z,41.53
2018-05-25T07:25:34.517Z,38.13
2018-05-25T07:28:09.701Z,34.83
2018-05-25T07:30:43.775Z,44.97
2018-05-25T07:33:18.157Z,35.20
2018-05-25T07:35:52.486Z,36.80
2018-05-25T07:38:26.625Z,39.37
2018-05-25T07:41:00.985Z,40.20
2018-05-25T07:43:35.283Z,40.73
2018-05-25T07:46:09.859Z,42.23
2018-05-25T07:48:44.489Z,50.57
2018-05-25T07:51:18.692Z,51.97
2018-05-25T07:53:53.783Z,50.60
2018-05-25T07:56:27.873Z,75.03
2018-05-25T07:59:02.947Z,58.20
2018-05-25T08:01:38.037Z,42.77
2018-05-25T08:04:12.194Z,45.23
2018-05-25T08:06:46.479Z,42.73
2018-05-25T08:09:20.706Z,40.77
2018-05-25T08:11:55.763Z,43.27
2018-05-25T08:14:30.053Z,36.77
2018-05-25T08:17:04.263Z,40.13
2018-05-25T08:19:38.510Z,45.23
2018-05-25T08:22:12.806Z,39.80
2018-05-25T08:24:47.219Z,37.43
2018-05-25T08:27:21.434Z,30.80
2018-05-25T08:29:56.535Z,41.37
2018-05-25T08:32:30.880Z,34.77
2018-05-25T08:35:05.187Z,33.17
2018-05-25T08:37:39.506Z,33.93
2018-05-25T08:40:13.820Z,29.10
2018-05-25T08:42:48.134Z,30.33
2018-05-25T08:45:22.372Z,34.20
2018-05-25T08:47:56.635Z,31.00
2018-05-25T08:50:30.874Z,34.43
2018-05-25T08:53:05.188Z,31.10
2018-05-25T08:55:40.277Z,28.03
2018-05-25T08:58:15.501Z,27.70
2018-05-25T09:00:49.802Z,30.23
2018-05-25T09:03:24.092Z,29.90
2018-05-25T09:05:58.391Z,33.57
2018-05-25T09:08:32.717Z,33.03
2018-05-25T09:11:07.027Z,34.53
2018-05-25T09:13:41.374Z,32.43
2018-05-25T09:16:15.618Z,33.53
2018-05-25T09:18:49.934Z,31.97
2018-05-25T09:21:24.322Z,30.77
2018-05-25T09:23:59.399Z,31.07
2018-05-25T09:26:33.785Z,33.57
2018-05-25T09:29:07.877Z,33.10
2018-05-25T09:31:42.098Z,32.90
2018-05-25T09:34:16.310Z,35.83
2018-05-25T09:36:51.324Z,35.33
2018-05-25T09:39:25.645Z,34.97
2018-05-25T09:42:00.005Z,29.00
2018-05-25T09:44:34.253Z,32.03
2018-05-25T09:47:09.490Z,30.13
2018-05-25T09:49:43.838Z,28.80
2018-05-25T09:52:19.466Z,25.13
2018-05-25T09:54:53.701Z,35.90
2018-05-25T09:57:28.029Z,25.20
2018-05-25T10:00:02.327Z,25.97
2018-05-25T10:02:36.667Z,23.00
2018-05-25T10:05:10.741Z,21.77
2018-05-25T10:07:45.070Z,30.07
2018-05-25T10:10:19.361Z,24.00
2018-05-25T10:12:53.473Z,31.00
2018-05-25T10:15:27.881Z,27.07
2018-05-25T10:18:02.033Z,24.73
2018-05-25T10:20:36.354Z,21.97
2018-05-25T10:23:10.571Z,19.73
2018-05-25T10:25:44.746Z,25.60
2018-05-25T10:28:18.882Z,23.23
2018-05-25T10:30:53.307Z,26.20
2018-05-25T10:33:27.728Z,26.03
2018-05-25T10:36:02.656Z,26.50
2018-05-25T10:38:36.962Z,36.03
2018-05-25T10:41:13.001Z,28.30
2018-05-25T10:43:47.418Z,28.10
2018-05-25T10:46:22.270Z,28.60
2018-05-25T10:48:56.603Z,30.63
2018-05-25T10:51:30.858Z,28.90
2018-05-25T10:54:04.953Z,28.30
2018-05-25T10:56:39.339Z,30.93
2018-05-25T10:59:13.646Z,28.03
2018-05-25T11:01:48.149Z,27.30
2018-05-25T11:04:22.177Z,22.87
2018-05-25T11:06:56.390Z,27.00
2018-05-25T11:09:30.694Z,27.90
2018-05-25T11:12:04.834Z,24.50
2018-05-25T11:14:38.909Z,22.17
2018-05-25T11:17:13.869Z,24.50
2018-05-25T11:19:47.939Z,33.50
2018-05-25T11:22:22.321Z,28.70
2018-05-25T11:24:56.502Z,19.80
2018-05-25T11:27:30.820Z,21.87
2018-05-25T11:33:03.616Z,16.27
2018-05-25T11:35:37.837Z,17.10
2018-05-25T11:38:12.172Z,17.30
2018-05-25T11:40:46.371Z,14.37
2018-05-25T11:43:20.679Z,12.97
2018-05-25T11:45:54.923Z,12.93
2018-05-25T11:48:29.164Z,20.50
2018-05-25T11:51:04.241Z,18.40
2018-05-25T11:53:38.667Z,15.93
2018-05-25T11:56:12.737Z,21.60
2018-05-25T11:58:46.917Z,21.57
2018-05-25T12:01:21.091Z,23.63
2018-05-25T12:03:55.294Z,24.10
2018-05-25T12:06:29.769Z,20.20
2018-05-25T12:09:03.919Z,18.60
2018-05-25T12:11:38.059Z,20.57
2018-05-25T12:14:12.482Z,21.90
2018-05-25T12:16:46.686Z,25.03
2018-05-25T12:19:20.893Z,23.70
2018-05-25T12:21:55.089Z,21.60
2018-05-25T12:24:29.375Z,22.30
2018-05-25T12:27:03.714Z,23.27
2018-05-25T12:29:38.009Z,20.33
2018-05-25T12:32:13.005Z,24.80
2018-05-25T12:34:47.117Z,24.80
2018-05-25T12:37:21.423Z,23.90
2018-05-25T12:39:55.635Z,24.93
2018-05-25T12:42:30.684Z,20.73
2018-05-25T12:45:11.545Z,25.63
2018-05-25T12:47:46.585Z,20.07
2018-05-25T12:50:20.891Z,24.80
2018-05-25T12:52:55.218Z,22.27
2018-05-25T12:55:29.383Z,24.00
2018-05-25T12:58:03.557Z,24.13
2018-05-25T13:00:37.949Z,23.90
2018-05-25T13:03:12.302Z,22.33
2018-05-25T13:05:46.595Z,21.50
2018-05-25T13:08:20.812Z,30.03
2018-05-25T13:10:55.001Z,21.67
2018-05-25T13:13:29.328Z,22.53
2018-05-25T13:16:03.538Z,18.80
2018-05-25T13:18:37.720Z,17.83
2018-05-25T13:21:12.070Z,20.70
2018-05-25T13:23:46.285Z,23.00
2018-05-25T13:26:21.565Z,17.37
2018-05-25T13:28:55.962Z,16.63
2018-05-25T13:31:30.157Z,15.90
2018-05-25T13:34:04.431Z,19.90
2018-05-25T13:36:38.683Z,15.47
2018-05-25T13:39:13.714Z,16.87
2018-05-25T13:41:48.210Z,14.77
2018-05-25T13:44:22.446Z,16.67
2018-05-25T13:46:56.558Z,15.60
2018-05-25T13:49:30.885Z,18.23
2018-05-25T13:52:05.090Z,18.60
2018-05-25T13:54:40.030Z,18.37
2018-05-25T13:57:14.335Z,18.07
2018-05-25T13:59:49.890Z,16.67
2018-05-25T14:02:25.330Z,15.40
2018-05-25T14:04:59.584Z,16.77
2018-05-25T14:07:33.878Z,16.57
2018-05-25T14:10:08.270Z,15.03
2018-05-25T14:12:42.400Z,19.37
2018-05-25T14:15:17.827Z,15.43
2018-05-25T14:17:52.047Z,17.60
2018-05-25T14:20:26.492Z,14.93
2018-05-25T14:23:00.784Z,16.70
2018-05-25T14:25:34.906Z,15.03
2018-05-25T14:28:09.143Z,17.70
2018-05-25T14:30:43.334Z,14.10
2018-05-25T14:33:17.401Z,17.37
2018-05-25T14:35:51.903Z,19.80
2018-05-25T14:38:26.193Z,17.23
2018-05-25T14:41:00.500Z,14.80
2018-05-25T14:43:35.408Z,15.00
2018-05-25T14:46:09.559Z,16.77
2018-05-25T14:48:43.914Z,14.53
2018-05-25T14:51:18.015Z,13.07
2018-05-25T14:53:52.379Z,17.50
2018-05-25T14:56:26.650Z,12.53
2018-05-25T14:59:02.078Z,12.40
2018-05-25T15:01:36.242Z,16.53
2018-05-25T15:04:10.533Z,13.20
2018-05-25T15:06:44.832Z,12.10
2018-05-25T15:09:19.075Z,13.63
2018-05-25T15:11:53.305Z,14.83
2018-05-25T15:14:27.602Z,14.77
2018-05-25T15:17:02.110Z,14.13
2018-05-25T15:19:38.368Z,14.47
2018-05-25T15:22:13.692Z,12.90
2018-05-25T15:24:48.669Z,14.17
2018-05-25T15:27:23.695Z,13.60
2018-05-25T15:29:57.977Z,12.30
2018-05-25T15:32:32.334Z,13.60
2018-05-25T15:35:06.333Z,13.23
2018-05-25T15:37:40.657Z,12.13
2018-05-25T15:40:15.627Z,15.00
2018-05-25T15:42:50.736Z,12.60
2018-05-25T15:45:24.826Z,14.63
2018-05-25T15:47:59.137Z,16.30
2018-05-25T15:50:33.287Z,13.23
2018-05-25T15:53:08.190Z,17.80
2018-05-25T15:55:42.295Z,14.30
2018-05-25T15:58:16.722Z,18.37
2018-05-25T16:00:50.937Z,15.03
2018-05-25T16:03:25.137Z,12.73
2018-05-25T16:05:59.783Z,13.27
2018-05-25T16:08:33.996Z,14.17
2018-05-25T16:11:08.381Z,13.50
2018-05-25T16:13:42.543Z,15.50
2018-05-25T16:16:16.629Z,16.30
2018-05-25T16:18:50.847Z,12.00
2018-05-25T16:21:25.061Z,11.30
2018-05-25T16:23:59.970Z,12.53
2018-05-25T16:26:34.123Z,11.73
2018-05-25T16:29:08.425Z,11.73
2018-05-25T16:31:42.746Z,13.17
2018-05-25T16:34:17.178Z,17.00
2018-05-25T16:36:51.387Z,25.63
2018-05-25T16:39:25.891Z,12.53
2018-05-25T16:42:00.121Z,13.10
2018-05-25T16:44:34.380Z,19.10
2018-05-25T16:47:08.634Z,15.03
2018-05-25T16:49:42.743Z,14.50
2018-05-25T16:52:17.166Z,14.10
2018-05-25T16:54:51.434Z,13.00
2018-05-25T16:57:25.703Z,17.20
2018-05-25T17:00:00.015Z,13.47
2018-05-25T17:02:36.170Z,11.87
2018-05-25T17:05:10.462Z,14.40
2018-05-25T17:07:47.569Z,14.87
2018-05-25T17:10:21.879Z,14.40
2018-05-25T17:12:56.730Z,13.43
2018-05-25T17:15:30.996Z,13.90
2018-05-25T17:18:05.130Z,13.40
2018-05-25T17:20:39.276Z,16.93
2018-05-25T17:23:13.405Z,14.90
2018-05-25T17:25:48.739Z,13.40
2018-05-25T17:28:22.860Z,14.63
2018-05-25T17:30:57.149Z,14.40
2018-05-25T17:33:31.337Z,11.23
2018-05-25T17:36:05.696Z,14.80
2018-05-25T17:38:39.966Z,13.50
2018-05-25T17:41:14.301Z,10.60
2018-05-25T17:43:48.628Z,11.83
2018-05-25T17:46:23.736Z,14.33
2018-05-25T17:48:57.954Z,12.07
2018-05-25T17:51:32.169Z,11.13
2018-05-25T17:54:07.190Z,10.20
2018-05-25T17:56:41.395Z,14.10
2018-05-25T17:59:15.714Z,9.53
2018-05-25T18:01:50.040Z,9.83
2018-05-25T18:04:24.982Z,16.53
2018-05-25T18:06:59.986Z,15.57
2018-05-25T18:09:34.313Z,10.70
2018-05-25T18:12:08.646Z,9.07
2018-05-25T18:14:43.681Z,10.30
2018-05-25T18:17:17.997Z,8.73
2018-05-25T18:19:52.098Z,9.50
2018-05-25T18:22:27.353Z,12.07
2018-05-25T18:25:01.501Z,9.93
2018-05-25T18:27:35.791Z,10.33
2018-05-25T18:30:09.887Z,13.00
2018-05-25T18:32:44.197Z,16.23
2018-05-25T18:35:18.590Z,10.33
2018-05-25T18:37:52.908Z,11.37
2018-05-25T18:40:27.242Z,10.53
2018-05-25T18:43:01.572Z,16.50
2018-05-25T18:45:36.610Z,10.50
2018-05-25T18:48:10.675Z,16.30
2018-05-25T18:50:45.039Z,12.40
2018-05-25T18:53:19.343Z,9.80
2018-05-25T18:55:53.949Z,13.83
2018-05-25T18:58:28.186Z,14.20
2018-05-25T19:01:03.310Z,15.77
2018-05-25T19:03:37.369Z,15.73
2018-05-25T19:06:12.258Z,11.87
2018-05-25T19:08:46.442Z,11.50
2018-05-25T19:11:20.771Z,10.10
2018-05-25T19:13:55.019Z,19.13
2018-05-25T19:16:29.329Z,14.70
2018-05-25T19:19:03.530Z,9.57
2018-05-25T19:21:37.738Z,15.50
2018-05-25T19:24:12.029Z,11.27
2018-05-25T19:26:47.601Z,14.57
2018-05-25T19:29:21.955Z,13.50
2018-05-25T19:31:56.243Z,12.07
2018-05-25T19:34:30.542Z,15.13
2018-05-25T19:37:05.562Z,12.87
2018-05-25T19:39:40.593Z,19.73
2018-05-25T19:42:14.923Z,24.40
2018-05-25T19:44:51.033Z,14.53
2018-05-25T19:47:25.321Z,12.73
2018-05-25T19:49:59.410Z,13.23
2018-05-25T19:52:33.630Z,13.00
2018-05-25T19:55:09.189Z,17.80
2018-05-25T19:57:43.251Z,26.17
2018-05-25T20:00:18.708Z,13.27
2018-05-25T20:02:52.809Z,14.90
2018-05-25T20:05:27.185Z,15.00
2018-05-25T20:08:01.351Z,14.23
2018-05-25T20:10:36.212Z,16.93
2018-05-25T20:13:10.383Z,15.30
2018-05-25T20:15:44.633Z,14.80
2018-05-25T20:18:18.816Z,15.30
2018-05-25T20:20:53.009Z,17.53
2018-05-25T20:23:28.719Z,15.17
2018-05-25T20:26:04.638Z,15.40
2018-05-25T20:28:40.524Z,17.27
2018-05-25T20:31:17.193Z,15.13
2018-05-25T20:33:52.954Z,13.93
2018-05-25T20:36:28.689Z,14.40
2018-05-25T20:39:04.599Z,19.23
2018-05-25T20:41:40.365Z,15.63
2018-05-25T20:44:16.102Z,15.20
2018-05-25T20:46:51.821Z,20.90
2018-05-25T20:49:27.767Z,19.10
2018-05-25T20:52:03.540Z,19.50
2018-05-25T20:54:39.829Z,13.80
2018-05-25T20:57:15.734Z,15.23
2018-05-25T20:59:51.564Z,15.10
2018-05-25T21:02:27.423Z,18.50
2018-05-25T21:05:03.159Z,15.70
2018-05-25T21:07:38.886Z,15.50
2018-05-25T21:10:15.498Z,15.10
2018-05-25T21:12:51.310Z,17.03
2018-05-25T21:15:27.519Z,15.97
2018-05-25T21:18:03.479Z,16.97
2018-05-25T21:20:39.274Z,22.37
2018-05-25T21:23:15.126Z,16.80
2018-05-25T21:25:51.005Z,17.77
2018-05-25T21:28:27.801Z,18.27
2018-05-25T21:31:04.578Z,14.87
2018-05-25T21:33:41.432Z,14.17
2018-05-25T21:36:18.521Z,17.83
2018-05-25T21:38:54.203Z,16.60
2018-05-25T21:41:30.230Z,17.70
2018-05-25T21:44:06.443Z,19.30
2018-05-25T21:46:45.115Z,18.20
2018-05-25T21:49:20.957Z,21.30
2018-05-25T21:51:56.611Z,22.30
2018-05-25T21:54:32.453Z,17.17
2018-05-25T21:57:08.265Z,16.53
2018-05-25T21:59:44.084Z,18.43
2018-05-25T22:02:20.045Z,26.10
2018-05-25T22:04:55.717Z,15.93
2018-05-25T22:07:32.687Z,23.60
2018-05-25T22:10:08.591Z,18.50
2018-05-25T22:12:44.457Z,22.83
2018-05-25T22:15:20.306Z,18.17
2018-05-25T22:17:56.261Z,19.57
2018-05-25T22:20:34.016Z,20.50
2018-05-25T22:23:10.822Z,17.13
2018-05-25T22:25:46.577Z,20.00
2018-05-25T22:28:22.437Z,22.63
2018-05-25T22:30:58.218Z,21.20
2018-05-25T22:33:34.136Z,27.30
2018-05-25T22:36:09.862Z,23.60
2018-05-25T22:38:45.701Z,20.47
2018-05-25T22:41:21.603Z,27.13
2018-05-25T22:44:03.381Z,23.83
2018-05-25T22:46:45.203Z,22.40
2018-05-25T22:49:26.970Z,28.93
2018-05-25T22:52:09.846Z,27.80
2018-05-25T22:54:45.489Z,24.73
2018-05-25T22:57:21.253Z,21.00
2018-05-25T22:59:56.981Z,22.13
2018-05-25T23:02:32.759Z,24.90
2018-05-25T23:05:08.735Z,25.77
2018-05-25T23:07:44.585Z,29.67
2018-05-25T23:10:20.655Z,27.13
2018-05-25T23:12:56.392Z,27.57
2018-05-25T23:15:32.169Z,27.10
2018-05-25T23:18:08.025Z,28.00
2018-05-25T23:20:43.854Z,28.40
2018-05-25T23:23:19.609Z,27.20
2018-05-25T23:25:55.353Z,25.23
2018-05-25T23:28:31.502Z,32.87
2018-05-25T23:31:07.353Z,33.37
2018-05-25T23:33:43.006Z,27.23
2018-05-25T23:36:18.953Z,28.03
2018-05-25T23:38:54.731Z,30.10
2018-05-25T23:41:30.433Z,29.37
2018-05-25T23:44:06.296Z,28.63
2018-05-25T23:46:42.077Z,27.60
2018-05-25T23:49:17.905Z,28.27
2018-05-25T23:51:53.881Z,28.47
2018-05-25T23:54:29.570Z,28.50
2018-05-25T23:57:05.447Z,26.17
2018-05-25T23:59:41.360Z,25.50
